Midland, Michigan
Current Conditions -  °F | °C
As of 2:15 AM on Friday 28 Nov 2014 (Local Time) from KIKW Reporting Station
Clear Clear  
Wind Chill: 17°   Ceiling: Unl
Heat Index: 17°   Visibility: 10mi
Dew Point: 11°   Wind: 0mph
Humidity: 75%   Direction: NA
Pressure: 30.32"   Gusts: NA
Location:  43.62°N, 84.22°W
Report Text: KIKW 280715Z AUTO 00000KT 10SM CLR M08/M12 A3032 RMK AO2 T10811119
Loading
Personal Weather Stations






























Interactive Weather Map New forecast layout! Learn more

10-Day Weather Forecast

Advertisements
Track Severe Weather on mobile